Ada, Ohio
Current Conditions -  °F | °C
As of 6:53 PM on Sunday 21 Dec 2014 (Local Time) from KAOH Reporting Station
Haze Haze  
Wind Chill: 24°   Ceiling: Unl
Heat Index: 31°   Visibility: 6mi
Dew Point: 24°   Wind: 7mph
Humidity: 76%   Direction: 120°ESE
Pressure: 30.18"   Gusts: NA
Location:  40.78°N, 83.82°W
Report Text: KAOH 212353Z AUTO 12006KT 6SM HZ CLR M01/M04 A3018 RMK AO2 SLP232 T10061044 10039 21006 58002
Loading
Personal Weather Stations






























Interactive Weather Map New forecast layout! Learn more

10-Day Weather Forecast

Advertisements
Track Severe Weather on mobile